createdAt,value
2022-10-05T00:00:14.703Z,6.68
2022-10-05T00:02:43.152Z,6.28
2022-10-05T00:05:29.889Z,6.40
2022-10-05T00:08:03.209Z,8.30
2022-10-05T00:10:31.209Z,5.75
2022-10-05T00:12:58.432Z,6.15
2022-10-05T00:15:25.889Z,7.47
2022-10-05T00:18:00.438Z,7.10
2022-10-05T00:20:31.382Z,9.63
2022-10-05T00:23:01.333Z,7.00
2022-10-05T00:25:28.684Z,6.90
2022-10-05T00:27:58.174Z,6.00
2022-10-05T00:30:36.496Z,5.57
2022-10-05T00:33:04.028Z,7.93
2022-10-05T00:35:35.491Z,7.20
2022-10-05T00:38:05.147Z,7.18
2022-10-05T00:41:10.751Z,6.75
2022-10-05T00:44:22.755Z,6.25
2022-10-05T00:47:00.329Z,6.18
2022-10-05T00:49:36.552Z,6.82
2022-10-05T00:52:26.971Z,6.25
2022-10-05T00:55:10.340Z,6.55
2022-10-05T00:57:50.298Z,7.47
2022-10-05T01:00:20.580Z,5.75
2022-10-05T01:02:52.691Z,7.25
2022-10-05T01:05:39.902Z,10.90
2022-10-05T01:08:22.493Z,9.43
2022-10-05T01:11:21.612Z,12.48
2022-10-05T01:14:01.771Z,6.80
2022-10-05T01:16:47.761Z,7.65
2022-10-05T01:20:01.296Z,6.97
2022-10-05T01:22:28.457Z,8.27
2022-10-05T01:25:25.047Z,7.28
2022-10-05T01:28:06.610Z,6.97
2022-10-05T01:30:52.971Z,8.40
2022-10-05T01:33:34.529Z,7.20
2022-10-05T01:36:17.062Z,8.68
2022-10-05T01:38:52.327Z,8.68
2022-10-05T01:41:29.202Z,7.97
2022-10-05T01:44:05.934Z,8.18
2022-10-05T01:46:41.823Z,7.38
2022-10-05T01:49:36.781Z,6.00
2022-10-05T01:52:55.125Z,6.07
2022-10-05T01:58:43.857Z,7.82
2022-10-05T02:01:21.989Z,7.03
2022-10-05T02:04:35.618Z,10.27
2022-10-05T02:07:08.723Z,8.90
2022-10-05T02:09:43.720Z,8.98
2022-10-05T02:12:15.330Z,10.70
2022-10-05T02:14:44.269Z,7.53
2022-10-05T02:17:16.600Z,7.22
2022-10-05T02:19:47.701Z,6.53
2022-10-05T02:22:31.308Z,9.20
2022-10-05T02:25:01.805Z,10.18
2022-10-05T02:27:35.509Z,8.90
2022-10-05T02:30:06.368Z,7.32
2022-10-05T02:32:41.577Z,8.23
2022-10-05T02:35:14.868Z,7.13
2022-10-05T02:38:02.266Z,8.30
2022-10-05T02:40:39.635Z,8.13
2022-10-05T02:43:28.225Z,7.38
2022-10-05T02:46:11.240Z,8.05
2022-10-05T02:49:16.296Z,9.32
2022-10-05T02:52:17.464Z,9.88
2022-10-05T02:55:03.809Z,7.63
2022-10-05T02:57:32.532Z,8.18
2022-10-05T03:00:07.483Z,7.50
2022-10-05T03:02:46.856Z,9.55
2022-10-05T03:05:37.113Z,7.75
2022-10-05T03:08:16.056Z,8.55
2022-10-05T03:10:52.635Z,7.32
2022-10-05T03:13:19.828Z,10.38
2022-10-05T03:15:50.298Z,8.13
2022-10-05T03:18:35.835Z,9.90
2022-10-05T03:21:22.320Z,9.27
2022-10-05T03:24:11.059Z,9.50
2022-10-05T03:26:53.355Z,8.40
2022-10-05T03:29:41.260Z,8.13
2022-10-05T03:32:41.419Z,8.38
2022-10-05T03:35:12.094Z,8.35
2022-10-05T03:37:53.246Z,8.65
2022-10-05T03:40:58.158Z,11.23
2022-10-05T03:43:34.421Z,11.30
2022-10-05T03:46:28.477Z,10.02
2022-10-05T03:49:27.995Z,7.60
2022-10-05T03:52:19.710Z,7.43
2022-10-05T03:55:29.558Z,9.95
2022-10-05T03:58:00.059Z,11.25
2022-10-05T04:00:28.472Z,8.07
2022-10-05T04:03:10.407Z,8.63
2022-10-05T04:05:44.789Z,13.25
2022-10-05T04:08:18.472Z,8.45
2022-10-05T04:10:51.802Z,8.27
2022-10-05T04:13:23.314Z,8.23
2022-10-05T04:16:00.025Z,8.82
2022-10-05T04:18:39.833Z,8.63
2022-10-05T04:21:11.852Z,6.22
2022-10-05T04:23:53.717Z,6.03
2022-10-05T04:26:30.900Z,7.30
2022-10-05T04:29:03.896Z,5.45
2022-10-05T04:31:35.427Z,6.07
2022-10-05T04:34:12.010Z,6.53
2022-10-05T04:36:49.426Z,5.93
2022-10-05T04:39:56.900Z,6.05
2022-10-05T04:42:35.963Z,4.38
2022-10-05T04:45:11.743Z,4.88
2022-10-05T04:48:04.630Z,6.15
2022-10-05T04:50:49.998Z,5.82
2022-10-05T04:53:34.884Z,7.00
2022-10-05T04:56:02.632Z,6.35
2022-10-05T04:59:06.796Z,7.88
2022-10-05T05:01:46.092Z,6.20
2022-10-05T05:04:32.295Z,6.38
2022-10-05T05:07:37.423Z,13.90
2022-10-05T05:10:21.138Z,7.63
2022-10-05T05:12:48.534Z,9.30
2022-10-05T05:15:30.307Z,10.07
2022-10-05T05:18:33.183Z,9.82
2022-10-05T05:21:09.713Z,9.13
2022-10-05T05:23:50.696Z,11.93
2022-10-05T05:26:29.763Z,7.22
2022-10-05T05:29:14.995Z,6.38
2022-10-05T05:32:00.746Z,6.35
2022-10-05T05:34:58.966Z,7.72
2022-10-05T05:37:36.370Z,7.57
2022-10-05T05:40:18.200Z,10.10
2022-10-05T05:43:22.826Z,10.35
2022-10-05T05:45:59.588Z,6.35
2022-10-05T05:48:40.288Z,10.25
2022-10-05T05:51:47.347Z,8.60
2022-10-05T05:54:22.689Z,26.75
2022-10-05T05:57:14.148Z,11.10
2022-10-05T06:00:05.752Z,35.10
2022-10-05T06:02:53.542Z,28.38
2022-10-05T06:05:41.785Z,8.13
2022-10-05T06:08:39.514Z,10.15
2022-10-05T06:11:24.050Z,8.02
2022-10-05T06:13:55.920Z,7.57
2022-10-05T06:16:37.591Z,9.93
2022-10-05T06:19:10.531Z,10.18
2022-10-05T06:21:45.721Z,7.53
2022-10-05T06:24:17.282Z,9.93
2022-10-05T06:27:19.126Z,12.65
2022-10-05T06:29:50.147Z,8.07
2022-10-05T06:33:04.601Z,5.93
2022-10-05T06:35:55.499Z,11.23
2022-10-05T06:38:54.025Z,8.88
2022-10-05T06:41:41.648Z,6.45
2022-10-05T06:44:25.878Z,11.60
2022-10-05T06:47:02.471Z,6.90
2022-10-05T06:49:37.676Z,6.85
2022-10-05T06:52:27.212Z,5.25
2022-10-05T06:55:08.624Z,9.82
2022-10-05T06:58:03.085Z,9.38
2022-10-05T07:00:33.411Z,6.45
2022-10-05T07:03:22.265Z,7.50
2022-10-05T07:06:11.509Z,5.78
2022-10-05T07:09:05.205Z,5.70
2022-10-05T07:12:13.001Z,5.32
2022-10-05T07:14:59.224Z,3.53
2022-10-05T07:17:47.887Z,3.13
2022-10-05T07:20:29.563Z,4.05
2022-10-05T07:23:14.374Z,2.92
2022-10-05T07:26:06.490Z,21.60
2022-10-05T07:29:08.164Z,7.10
2022-10-05T07:31:44.135Z,5.00
2022-10-05T07:34:22.887Z,5.93
2022-10-05T07:37:20.772Z,5.90
2022-10-05T07:40:10.002Z,3.30
2022-10-05T07:42:56.489Z,4.00
2022-10-05T07:45:37.995Z,5.05
2022-10-05T07:48:42.653Z,5.53
2022-10-05T07:51:26.105Z,13.10
2022-10-05T07:54:10.910Z,6.15
2022-10-05T07:56:45.795Z,15.90
2022-10-05T07:59:28.665Z,6.35
2022-10-05T08:02:07.171Z,15.40
2022-10-05T08:05:06.427Z,3.40
2022-10-05T08:07:35.089Z,3.15
2022-10-05T08:10:31.856Z,5.07
2022-10-05T08:13:07.532Z,4.85
2022-10-05T08:15:43.338Z,4.47
2022-10-05T08:18:17.027Z,5.35
2022-10-05T08:20:55.174Z,4.82
2022-10-05T08:23:46.381Z,4.75
2022-10-05T08:26:16.738Z,4.20
2022-10-05T08:29:21.574Z,3.75
2022-10-05T08:31:55.343Z,5.15
2022-10-05T08:34:37.541Z,3.90
2022-10-05T08:37:19.058Z,4.75
2022-10-05T08:39:56.936Z,5.60
2022-10-05T08:42:37.521Z,4.88
2022-10-05T08:45:05.248Z,7.15
2022-10-05T08:47:36.382Z,4.32
2022-10-05T08:50:24.883Z,3.83
2022-10-05T08:53:07.453Z,4.88
2022-10-05T08:55:52.491Z,3.35
2022-10-05T08:58:26.656Z,3.13
2022-10-05T09:01:12.857Z,4.30
2022-10-05T09:04:10.796Z,3.90
2022-10-05T09:07:00.509Z,3.20
2022-10-05T09:09:42.272Z,5.15
2022-10-05T09:12:16.807Z,5.65
2022-10-05T09:15:01.294Z,5.82
2022-10-05T09:17:55.398Z,5.85
2022-10-05T09:20:37.817Z,4.72
2022-10-05T09:23:34.495Z,5.22
2022-10-05T09:26:42.828Z,6.80
2022-10-05T09:29:29.039Z,3.58
2022-10-05T09:32:33.919Z,6.43
2022-10-05T09:35:31.593Z,4.78
2022-10-05T09:38:17.639Z,2.70
2022-10-05T09:41:22.032Z,4.38
2022-10-05T09:44:27.884Z,5.68
2022-10-05T09:47:25.934Z,4.22
2022-10-05T09:50:07.963Z,5.88
2022-10-05T09:53:00.300Z,4.35
2022-10-05T09:55:27.483Z,6.50
2022-10-05T09:57:59.370Z,4.60
2022-10-05T10:00:59.493Z,4.97
2022-10-05T10:04:08.024Z,4.15
2022-10-05T10:06:51.385Z,4.85
2022-10-05T10:09:36.495Z,5.20
2022-10-05T10:12:19.390Z,7.20
2022-10-05T10:15:01.908Z,7.43
2022-10-05T10:18:01.970Z,7.55
2022-10-05T10:20:45.225Z,5.80
2022-10-05T10:23:50.705Z,6.32
2022-10-05T10:26:36.652Z,5.38
2022-10-05T10:29:48.156Z,6.40
2022-10-05T10:32:33.287Z,5.70
2022-10-05T10:35:21.858Z,4.50
2022-10-05T10:38:04.094Z,9.68
2022-10-05T10:40:37.198Z,4.45
2022-10-05T10:43:41.155Z,6.88
2022-10-05T10:46:17.345Z,7.72
2022-10-05T10:48:54.163Z,5.88
2022-10-05T10:51:44.415Z,5.30
2022-10-05T10:54:33.014Z,4.68
2022-10-05T10:57:12.341Z,6.63
2022-10-05T10:59:48.818Z,19.08
2022-10-05T11:02:25.018Z,5.22
2022-10-05T11:05:29.858Z,5.05
2022-10-05T11:08:22.522Z,3.63
2022-10-05T11:11:36.380Z,3.38
2022-10-05T11:14:22.478Z,5.95
2022-10-05T11:17:08.849Z,4.68
2022-10-05T11:20:03.173Z,5.30
2022-10-05T11:23:09.413Z,6.70
2022-10-05T11:25:44.415Z,5.72
2022-10-05T11:28:52.954Z,4.90
2022-10-05T11:31:54.359Z,6.25
2022-10-05T11:34:24.355Z,6.05
2022-10-05T11:37:24.134Z,5.70
2022-10-05T11:40:38.540Z,9.27
2022-10-05T11:43:35.160Z,4.80
2022-10-05T11:58:15.252Z,4.18
2022-10-05T12:18:13.576Z,6.15
2022-10-05T12:20:48.670Z,3.88
2022-10-05T12:23:24.686Z,3.85
2022-10-05T12:26:05.637Z,2.97
2022-10-05T12:28:39.680Z,3.90
2022-10-05T12:31:19.486Z,6.25
2022-10-05T12:34:01.963Z,4.00
2022-10-05T12:36:59.717Z,4.55
2022-10-05T12:39:47.815Z,6.65
2022-10-05T12:42:24.170Z,4.47
2022-10-05T12:45:07.387Z,6.97
2022-10-05T12:47:53.757Z,5.85
2022-10-05T12:50:33.434Z,6.32
2022-10-05T12:53:38.323Z,4.18
2022-10-05T12:56:21.584Z,7.35
2022-10-05T12:59:29.703Z,5.25
2022-10-05T13:02:00.215Z,4.78
2022-10-05T13:04:43.931Z,5.45
2022-10-05T13:07:23.428Z,4.30
2022-10-05T13:10:13.283Z,7.47
2022-10-05T13:12:55.753Z,4.25
2022-10-05T13:15:30.273Z,7.13
2022-10-05T13:18:22.553Z,5.25
2022-10-05T13:21:22.372Z,6.10
2022-10-05T13:23:57.142Z,7.00
2022-10-05T13:26:29.962Z,9.02
2022-10-05T13:29:11.698Z,10.63
2022-10-05T13:31:54.432Z,7.13
2022-10-05T13:34:27.635Z,7.45
2022-10-05T13:37:09.790Z,8.68
2022-10-05T13:39:58.710Z,8.43
2022-10-05T13:42:33.030Z,14.45
2022-10-05T13:45:04.633Z,8.35
2022-10-05T13:47:39.512Z,8.27
2022-10-05T13:50:28.532Z,7.70
2022-10-05T13:53:37.005Z,5.18
2022-10-05T13:56:07.266Z,6.28
2022-10-05T13:58:50.284Z,6.55
2022-10-05T14:01:26.630Z,5.72
2022-10-05T14:04:16.044Z,6.47
2022-10-05T14:06:43.944Z,4.22
2022-10-05T14:09:33.475Z,5.40
2022-10-05T14:12:03.989Z,5.30
2022-10-05T14:14:32.784Z,6.07
2022-10-05T14:17:06.065Z,5.72
2022-10-05T14:19:46.501Z,5.85
2022-10-05T14:22:16.913Z,4.97
2022-10-05T14:24:55.234Z,4.60
2022-10-05T14:27:28.519Z,5.28
2022-10-05T14:30:03.015Z,8.23
2022-10-05T14:32:32.664Z,6.45
2022-10-05T14:35:05.237Z,10.55
2022-10-05T14:37:43.522Z,6.65
2022-10-05T14:40:37.465Z,5.70
2022-10-05T14:43:13.909Z,8.90
2022-10-05T14:45:55.923Z,6.47
2022-10-05T14:48:24.060Z,7.90
2022-10-05T14:50:56.754Z,9.45
2022-10-05T14:53:26.245Z,9.50
2022-10-05T14:56:33.168Z,10.55
2022-10-05T14:59:06.065Z,9.23
2022-10-05T15:01:39.261Z,8.45
2022-10-05T15:04:20.614Z,7.82
2022-10-05T15:07:04.307Z,6.50
2022-10-05T15:10:01.584Z,6.68
2022-10-05T15:12:39.096Z,8.88
2022-10-05T15:15:28.482Z,10.68
2022-10-05T15:18:00.960Z,7.93
2022-10-05T15:21:00.974Z,10.00
2022-10-05T15:23:49.603Z,8.63
2022-10-05T15:26:22.881Z,8.55
2022-10-05T15:29:21.898Z,10.25
2022-10-05T15:31:58.459Z,8.38
2022-10-05T15:34:37.687Z,6.40
2022-10-05T15:37:28.026Z,8.90
2022-10-05T15:40:00.335Z,6.28
2022-10-05T15:42:38.401Z,10.65
2022-10-05T15:45:19.645Z,9.20
2022-10-05T15:48:20.534Z,9.60
2022-10-05T15:51:07.027Z,7.45
2022-10-05T15:53:42.920Z,7.35
2022-10-05T15:56:29.034Z,8.05
2022-10-05T15:59:11.302Z,8.60
2022-10-05T16:01:53.032Z,8.88
2022-10-05T16:04:25.355Z,7.78
2022-10-05T16:07:20.936Z,8.20
2022-10-05T16:09:56.837Z,9.32
2022-10-05T16:12:54.740Z,10.20
2022-10-05T16:15:42.810Z,10.05
2022-10-05T16:18:32.745Z,10.32
2022-10-05T16:21:04.348Z,13.45
2022-10-05T16:23:31.675Z,11.75
2022-10-05T16:26:24.929Z,12.45
2022-10-05T16:28:55.273Z,17.85
2022-10-05T16:31:37.791Z,12.65
2022-10-05T16:34:20.331Z,14.52
2022-10-05T16:37:05.837Z,9.15
2022-10-05T16:39:45.823Z,10.02
2022-10-05T16:42:46.544Z,9.05
2022-10-05T16:45:45.124Z,14.15
2022-10-05T16:48:25.344Z,9.30
2022-10-05T16:51:28.908Z,11.02
2022-10-05T16:54:18.294Z,9.02
2022-10-05T16:56:52.717Z,10.30
2022-10-05T16:59:59.082Z,24.55
2022-10-05T17:03:14.251Z,11.00
2022-10-05T17:05:51.335Z,9.43
2022-10-05T17:08:45.775Z,8.63
2022-10-05T17:11:34.864Z,8.30
2022-10-05T17:14:23.524Z,6.55
2022-10-05T17:17:17.290Z,6.57
2022-10-05T17:20:07.989Z,10.82
2022-10-05T17:22:53.294Z,6.63
2022-10-05T17:25:39.633Z,10.23
2022-10-05T17:28:23.831Z,6.47
2022-10-05T17:31:21.778Z,8.27
2022-10-05T17:34:11.328Z,9.27
2022-10-05T17:36:50.497Z,6.93
2022-10-05T17:39:23.428Z,6.28
2022-10-05T17:41:51.142Z,12.23
2022-10-05T17:44:21.704Z,12.27
2022-10-05T17:46:56.171Z,8.07
2022-10-05T17:50:08.367Z,13.20
2022-10-05T17:52:58.774Z,12.73
2022-10-05T17:55:31.735Z,12.70
2022-10-05T17:58:18.573Z,12.02
2022-10-05T18:01:04.967Z,9.93
2022-10-05T18:03:44.440Z,10.95
2022-10-05T18:06:24.366Z,10.30
2022-10-05T18:09:21.718Z,9.02
2022-10-05T18:11:56.083Z,9.45
2022-10-05T18:14:27.432Z,9.25
2022-10-05T18:16:57.897Z,8.93
2022-10-05T18:19:32.442Z,13.68
2022-10-05T18:22:25.342Z,11.40
2022-10-05T18:25:03.959Z,14.35
2022-10-05T18:28:00.485Z,15.55
2022-10-05T18:30:33.487Z,16.60
2022-10-05T18:33:09.677Z,12.88
2022-10-05T18:35:48.984Z,14.38
2022-10-05T18:38:33.004Z,9.88
2022-10-05T18:41:32.363Z,12.20
2022-10-05T18:44:39.524Z,13.82
2022-10-05T18:47:38.270Z,25.00
2022-10-05T18:50:05.562Z,19.08
2022-10-05T18:52:41.548Z,24.77
2022-10-05T18:55:19.259Z,25.50
2022-10-05T18:57:50.361Z,60.25
2022-10-05T19:00:22.778Z,38.63
2022-10-05T19:03:03.720Z,44.10
2022-10-05T19:05:56.579Z,40.13
2022-10-05T19:08:45.268Z,28.50
2022-10-05T19:11:25.893Z,34.88
2022-10-05T19:14:05.655Z,34.15
2022-10-05T19:16:54.801Z,37.35
2022-10-05T19:20:00.359Z,39.15
2022-10-05T19:23:05.360Z,33.20
2022-10-05T19:25:53.227Z,44.60
2022-10-05T19:28:26.352Z,40.63
2022-10-05T19:31:12.149Z,45.92
2022-10-05T19:34:02.465Z,49.72
2022-10-05T19:36:32.446Z,47.15
2022-10-05T19:39:38.353Z,43.63
2022-10-05T19:42:24.806Z,41.15
2022-10-05T19:45:10.383Z,40.17
2022-10-05T19:47:41.381Z,44.60
2022-10-05T19:50:25.335Z,45.72
2022-10-05T19:53:21.060Z,34.47
2022-10-05T19:55:51.013Z,42.53
2022-10-05T19:58:24.799Z,45.72
2022-10-05T20:00:58.968Z,82.93
2022-10-05T20:03:29.256Z,43.05
2022-10-05T20:05:58.481Z,42.20
2022-10-05T20:08:28.589Z,44.33
2022-10-05T20:11:14.243Z,37.60
2022-10-05T20:13:52.283Z,36.33
2022-10-05T20:19:52.015Z,31.15
2022-10-05T20:22:28.373Z,31.35
2022-10-05T20:24:57.955Z,33.80
2022-10-05T20:27:40.005Z,34.53
2022-10-05T20:30:08.856Z,32.58
2022-10-05T20:32:36.417Z,28.15
2022-10-05T20:35:03.955Z,28.23
2022-10-05T20:37:31.194Z,26.63
2022-10-05T20:39:58.971Z,33.22
2022-10-05T20:42:26.737Z,30.00
2022-10-05T20:44:56.820Z,27.20
2022-10-05T20:47:25.312Z,25.33
2022-10-05T20:49:54.692Z,22.88
2022-10-05T20:52:23.188Z,24.88
2022-10-05T20:54:53.870Z,21.40
2022-10-05T20:57:21.341Z,26.80
2022-10-05T20:59:48.828Z,23.20
2022-10-05T21:02:15.966Z,30.00
2022-10-05T21:04:47.546Z,31.63
2022-10-05T21:07:16.396Z,42.75
2022-10-05T21:09:44.773Z,41.50
2022-10-05T21:12:12.141Z,53.60
2022-10-05T21:14:40.597Z,60.47
2022-10-05T21:17:12.510Z,73.75
2022-10-05T21:19:40.451Z,53.15
2022-10-05T21:22:09.629Z,55.33
2022-10-05T21:24:38.064Z,60.38
2022-10-05T21:27:05.773Z,51.70
2022-10-05T21:29:34.434Z,54.80
2022-10-05T21:32:02.952Z,45.78
2022-10-05T21:34:30.347Z,48.55
2022-10-05T21:36:57.665Z,41.08
2022-10-05T21:39:25.635Z,30.85
2022-10-05T21:41:52.996Z,33.13
2022-10-05T21:44:20.487Z,28.73
2022-10-05T21:46:49.366Z,26.92
2022-10-05T21:49:18.918Z,64.07
2022-10-05T21:51:47.396Z,85.38
2022-10-05T21:54:17.542Z,56.13
2022-10-05T21:56:49.556Z,57.15
2022-10-05T21:59:19.411Z,54.60
2022-10-05T22:01:46.954Z,40.85
2022-10-05T22:04:15.121Z,49.00
2022-10-05T22:06:42.636Z,42.50
2022-10-05T22:09:09.946Z,38.28
2022-10-05T22:11:38.134Z,40.30
2022-10-05T22:14:05.366Z,38.85
2022-10-05T22:16:43.207Z,35.28
2022-10-05T22:19:14.916Z,52.05
2022-10-05T22:21:42.818Z,71.05
2022-10-05T22:24:11.738Z,63.20
2022-10-05T22:26:41.079Z,62.40
2022-10-05T22:29:09.703Z,69.25
2022-10-05T22:31:37.258Z,71.10
2022-10-05T22:34:05.819Z,61.40
2022-10-05T22:36:37.330Z,59.13
2022-10-05T22:39:09.632Z,38.85
2022-10-05T22:41:36.856Z,41.58
2022-10-05T22:44:04.360Z,42.45
2022-10-05T22:46:33.238Z,35.88
2022-10-05T22:49:00.465Z,33.53
2022-10-05T22:51:27.857Z,32.97
2022-10-05T22:53:55.035Z,27.65
2022-10-05T22:56:22.318Z,21.00
2022-10-05T22:58:51.061Z,19.77
2022-10-05T23:01:19.767Z,20.15
2022-10-05T23:03:47.197Z,18.77
2022-10-05T23:06:19.674Z,18.85
2022-10-05T23:08:47.748Z,20.52
2022-10-05T23:11:18.500Z,23.15
2022-10-05T23:13:45.735Z,23.98
2022-10-05T23:16:23.456Z,16.33
2022-10-05T23:18:53.985Z,15.18
2022-10-05T23:21:22.817Z,17.33
2022-10-05T23:23:53.054Z,16.60
2022-10-05T23:26:24.812Z,13.48
2022-10-05T23:28:52.255Z,14.45
2022-10-05T23:31:22.282Z,11.20
2022-10-05T23:33:50.035Z,13.48
2022-10-05T23:36:22.143Z,13.45
2022-10-05T23:38:52.376Z,12.90
2022-10-05T23:41:22.191Z,14.70
2022-10-05T23:43:49.792Z,14.10
2022-10-05T23:46:18.019Z,12.30
2022-10-05T23:48:45.265Z,14.05
2022-10-05T23:51:13.925Z,13.68
2022-10-05T23:53:43.261Z,14.00
2022-10-05T23:56:10.482Z,12.73
2022-10-05T23:58:37.852Z,17.25
